Time;durP1;ratioP1;P1;durP2;ratioP2;P2;SDS_P1;SDS_P2;PMS_P1;PMS_P2;Temp;Humidity;BMP_temperature;BMP_pressure;BME280_temperature;BME280_humidity;BME280_pressure;Samples;Min_cycle;Max_cycle;Signal;HPM_P1;HPM_P2
2023/05/07 00:01:02;;;;;;;;;;;12.50;99.90;;;;;;5074241;28;19908;-68
2023/05/07 00:03:28;;;;;;;;;;;12.50;99.90;;;;;;5074919;28;19920;-69
2023/05/07 00:05:55;;;;;;;;;;;12.40;99.90;;;;;;5072093;28;20145;-70
2023/05/07 00:08:22;;;;;;;;;;;12.30;99.90;;;;;;5076520;28;19913;-69
2023/05/07 00:10:48;;;;;;;;;;;12.20;99.90;;;;;;5074047;28;19998;-68
2023/05/07 00:13:15;;;;;;;;;;;12.20;99.90;;;;;;5074092;28;19908;-68
2023/05/07 00:15:42;;;;;;;;;;;12.20;99.90;;;;;;5072610;28;19977;-70
2023/05/07 00:18:08;;;;;;;;;;;12.10;99.90;;;;;;5072449;28;19917;-69
2023/05/07 00:20:35;;;;;;;;;;;12.20;99.90;;;;;;5073733;28;19919;-68
2023/05/07 00:23:02;;;;;;;;;;;12.20;99.90;;;;;;5069275;28;20474;-68
2023/05/07 00:25:28;;;;;;;;;;;12.30;99.90;;;;;;5070793;28;19989;-68
2023/05/07 00:27:55;;;;;;;;;;;12.20;99.90;;;;;;5071697;28;19915;-70
2023/05/07 00:30:22;;;;;;;;;;;12.30;99.90;;;;;;5073010;28;19936;-68
2023/05/07 00:32:50;;;;;;;;;;;12.20;99.90;;;;;;5071503;28;19916;-69
2023/05/07 00:35:17;;;;;;;;;;;12.20;99.90;;;;;;5068453;28;19924;-69
2023/05/07 00:37:43;;;;;;;;;;;12.20;99.90;;;;;;5071878;28;19951;-69
2023/05/07 00:40:11;;;;;;;;;;;12.10;99.90;;;;;;5073077;28;19955;-68
2023/05/07 00:42:37;;;;;;;;;;;12.10;99.90;;;;;;5078084;28;19916;-69
2023/05/07 00:45:04;;;;;;;;;;;12.10;99.90;;;;;;5074653;28;19938;-70
2023/05/07 00:47:31;;;;;;;;;;;12.20;99.90;;;;;;5075159;28;19931;-70
2023/05/07 00:49:58;;;;;;;;;;;12.30;99.90;;;;;;5075814;28;19919;-69
2023/05/07 00:52:25;;;;;;;;;;;12.30;99.90;;;;;;5076945;28;19915;-68
2023/05/07 00:54:52;;;;;;;;;;;12.40;99.90;;;;;;5073384;28;19954;-67
2023/05/07 00:57:20;;;;;;;;;;;12.50;99.90;;;;;;5076544;28;19916;-69
2023/05/07 00:59:46;;;;;;;;;;;12.60;99.90;;;;;;5076510;28;19916;-71
2023/05/07 01:02:13;;;;;;;;;;;12.70;99.90;;;;;;5076103;28;19965;-69
2023/05/07 01:04:40;;;;;;;;;;;12.70;99.90;;;;;;5077012;28;19908;-70
2023/05/07 01:07:06;;;;;;;;;;;12.70;99.90;;;;;;5074101;28;20718;-69
2023/05/07 01:09:35;;;;;;;;;;;12.70;99.90;;;;;;5077426;28;20326;-68
2023/05/07 01:12:01;;;;;;;;;;;12.70;99.90;;;;;;5075883;28;19915;-70
2023/05/07 01:14:29;;;;;;;;;;;12.80;99.90;;;;;;5075789;28;19919;-70
2023/05/07 01:16:56;;;;;;;;;;;12.80;99.90;;;;;;5075895;28;19912;-68
2023/05/07 01:19:22;;;;;;;;;;;12.90;99.90;;;;;;5076076;28;19919;-66
2023/05/07 01:21:49;;;;;;;;;;;13.10;99.90;;;;;;5076848;28;19908;-69
2023/05/07 01:24:16;;;;;;;;;;;13.30;99.90;;;;;;5076163;28;19999;-69
2023/05/07 01:26:44;;;;;;;;;;;13.40;99.90;;;;;;5077019;28;20011;-68
2023/05/07 01:29:11;;;;;;;;;;;13.40;99.90;;;;;;5074749;28;19912;-68
2023/05/07 01:31:39;;;;;;;;;;;13.40;99.90;;;;;;5077689;28;19912;-68
2023/05/07 01:34:07;;;;;;;;;;;13.30;99.90;;;;;;5075728;28;19912;-68
2023/05/07 01:36:34;;;;;;;;;;;13.20;99.90;;;;;;5077780;28;19967;-66
2023/05/07 01:39:02;;;;;;;;;;;13.20;99.90;;;;;;5076149;28;19919;-67
2023/05/07 01:41:28;;;;;;;;;;;12.90;99.90;;;;;;5072878;28;19974;-66
2023/05/07 01:43:55;;;;;;;;;;;12.90;99.90;;;;;;5073398;28;19931;-68
2023/05/07 01:46:22;;;;;;;;;;;13.00;99.90;;;;;;5075671;28;19916;-68
2023/05/07 01:48:50;;;;;;;;;;;13.20;99.90;;;;;;5076338;28;19935;-68
2023/05/07 01:51:17;;;;;;;;;;;13.40;99.90;;;;;;5074100;28;19916;-69
2023/05/07 01:53:45;;;;;;;;;;;13.70;99.90;;;;;;5075180;28;19915;-67
2023/05/07 01:56:12;;;;;;;;;;;13.90;99.90;;;;;;5074649;28;19920;-66
2023/05/07 01:58:38;;;;;;;;;;;14.10;99.90;;;;;;5076084;28;20461;-67
2023/05/07 02:01:05;;;;;;;;;;;14.20;99.90;;;;;;5075565;28;19912;-65
2023/05/07 02:03:32;;;;;;;;;;;14.20;99.90;;;;;;5076382;28;20361;-69
2023/05/07 02:05:58;;;;;;;;;;;14.50;99.90;;;;;;5076257;28;19994;-64
2023/05/07 02:08:25;;;;;;;;;;;14.40;99.90;;;;;;5073374;28;20332;-67
2023/05/07 02:10:53;;;;;;;;;;;14.30;99.90;;;;;;5075266;28;20015;-66
2023/05/07 02:13:21;;;;;;;;;;;14.40;99.90;;;;;;5075249;28;19947;-67
2023/05/07 02:15:50;;;;;;;;;;;14.50;99.90;;;;;;5076315;28;20380;-70
2023/05/07 02:18:17;;;;;;;;;;;14.70;99.90;;;;;;5075463;28;19908;-69
2023/05/07 02:20:44;;;;;;;;;;;14.70;99.90;;;;;;5076222;28;19912;-67
2023/05/07 02:23:10;;;;;;;;;;;14.70;99.90;;;;;;5076146;28;19904;-66
2023/05/07 02:25:37;;;;;;;;;;;14.90;99.90;;;;;;5076421;28;19931;-65
2023/05/07 02:28:04;;;;;;;;;;;15.00;99.90;;;;;;5076175;28;19908;-66
2023/05/07 02:30:30;;;;;;;;;;;15.20;99.90;;;;;;5076596;28;19916;-67
2023/05/07 02:32:57;;;;;;;;;;;15.50;99.90;;;;;;5076873;28;19912;-67
2023/05/07 02:35:25;;;;;;;;;;;15.70;99.90;;;;;;5076055;28;19935;-64
2023/05/07 02:37:51;;;;;;;;;;;15.80;99.90;;;;;;5075331;28;20259;-65
2023/05/07 02:40:18;;;;;;;;;;;15.90;99.90;;;;;;5074757;28;20106;-64
2023/05/07 02:42:45;;;;;;;;;;;16.30;99.90;;;;;;5076417;28;19951;-64
2023/05/07 02:45:11;;;;;;;;;;;16.80;99.90;;;;;;5075724;28;19908;-66
2023/05/07 02:47:38;;;;;;;;;;;17.10;98.30;;;;;;5075553;28;20695;-67
2023/05/07 02:50:05;;;;;;;;;;;17.40;98.00;;;;;;5076565;28;19908;-67
2023/05/07 02:52:31;;;;;;;;;;;17.50;96.20;;;;;;5076246;28;20005;-66
2023/05/07 02:54:58;;;;;;;;;;;17.50;96.10;;;;;;5076246;28;20035;-68
2023/05/07 02:57:25;;;;;;;;;;;17.20;95.70;;;;;;5074614;28;19908;-65
2023/05/07 02:59:51;;;;;;;;;;;17.00;97.00;;;;;;5077040;28;20006;-64
2023/05/07 03:02:18;;;;;;;;;;;16.70;95.70;;;;;;5075799;28;19990;-65
2023/05/07 03:04:44;;;;;;;;;;;16.40;96.90;;;;;;5076711;28;20002;-64
2023/05/07 03:07:11;;;;;;;;;;;16.00;97.00;;;;;;5074322;28;19912;-69
2023/05/07 03:09:38;;;;;;;;;;;15.50;98.00;;;;;;5072525;28;19908;-70
2023/05/07 03:12:04;;;;;;;;;;;14.90;99.60;;;;;;5073869;28;20598;-69
2023/05/07 03:14:31;;;;;;;;;;;14.30;99.90;;;;;;5074636;28;20025;-69
2023/05/07 03:16:58;;;;;;;;;;;13.90;99.90;;;;;;5075369;28;19912;-69
2023/05/07 03:19:24;;;;;;;;;;;13.40;99.90;;;;;;5073811;28;19912;-70
2023/05/07 03:21:51;;;;;;;;;;;12.90;99.90;;;;;;5076458;28;20025;-69
2023/05/07 03:24:18;;;;;;;;;;;12.70;99.90;;;;;;5074090;28;20365;-68
2023/05/07 03:26:44;;;;;;;;;;;12.70;99.90;;;;;;5076147;28;19908;-69
2023/05/07 03:29:11;;;;;;;;;;;13.30;99.90;;;;;;5073263;28;19934;-68
2023/05/07 03:31:37;;;;;;;;;;;14.30;99.90;;;;;;5075164;28;19912;-68
2023/05/07 03:34:04;;;;;;;;;;;16.30;99.90;;;;;;5074987;28;19909;-65
2023/05/07 03:36:31;;;;;;;;;;;18.80;98.60;;;;;;5072748;28;19931;-66
2023/05/07 03:38:57;;;;;;;;;;;21.40;94.50;;;;;;5075313;28;19933;-66
2023/05/07 03:41:25;;;;;;;;;;;23.50;90.40;;;;;;5074242;28;20384;-68
2023/05/07 03:43:52;;;;;;;;;;;25.10;85.10;;;;;;5076294;28;19908;-66
2023/05/07 03:46:18;;;;;;;;;;;25.90;83.20;;;;;;5072694;28;20006;-69
2023/05/07 03:48:45;;;;;;;;;;;26.60;81.00;;;;;;5074724;28;19997;-67
2023/05/07 03:51:11;;;;;;;;;;;27.60;74.10;;;;;;5074479;28;19930;-68
2023/05/07 03:53:38;;;;;;;;;;;27.40;71.10;;;;;;5074857;28;19934;-64
2023/05/07 03:56:05;;;;;;;;;;;28.10;71.80;;;;;;5076021;28;19916;-65
2023/05/07 03:58:31;;;;;;;;;;;28.10;66.20;;;;;;5073048;28;20359;-67
2023/05/07 04:00:58;;;;;;;;;;;28.50;64.60;;;;;;5074303;28;19966;-69
2023/05/07 04:03:25;;;;;;;;;;;28.60;64.70;;;;;;5074212;28;19908;-69
2023/05/07 04:05:51;;;;;;;;;;;29.20;67.20;;;;;;5074454;28;19908;-66
2023/05/07 04:08:18;;;;;;;;;;;29.80;63.00;;;;;;5057026;28;19908;-69
2023/05/07 04:10:45;;;;;;;;;;;30.20;62.40;;;;;;5073464;28;19920;-68
2023/05/07 04:13:11;;;;;;;;;;;30.60;61.50;;;;;;5076716;28;19942;-67
2023/05/07 04:15:38;;;;;;;;;;;30.00;61.30;;;;;;5074406;28;19956;-69
2023/05/07 04:18:05;;;;;;;;;;;26.80;63.00;;;;;;5080665;28;19908;-67
2023/05/07 04:20:36;;;;;;;;;;;25.20;67.30;;;;;;5078966;28;19960;-70
2023/05/07 04:23:02;;;;;;;;;;;25.20;69.20;;;;;;5081015;28;19908;-67
2023/05/07 04:25:29;;;;;;;;;;;25.30;67.20;;;;;;5080036;28;19912;-69
2023/05/07 04:27:56;;;;;;;;;;;25.00;69.20;;;;;;5079942;28;19917;-66
2023/05/07 04:30:22;;;;;;;;;;;24.80;61.70;;;;;;5080841;28;19916;-67
2023/05/07 04:32:49;;;;;;;;;;;23.90;61.50;;;;;;5078780;28;19912;-68
2023/05/07 04:35:15;;;;;;;;;;;22.80;63.50;;;;;;5082010;28;19960;-66
2023/05/07 04:37:42;;;;;;;;;;;21.60;63.30;;;;;;5077495;28;19974;-68
2023/05/07 04:40:09;;;;;;;;;;;20.90;65.80;;;;;;5081248;28;19912;-67
2023/05/07 04:42:36;;;;;;;;;;;20.80;65.30;;;;;;5079492;28;19927;-69
2023/05/07 04:45:03;;;;;;;;;;;21.10;67.00;;;;;;5077530;28;19912;-68
2023/05/07 04:47:29;;;;;;;;;;;21.10;65.30;;;;;;5086472;28;19914;-67
2023/05/07 04:49:56;;;;;;;;;;;20.80;64.00;;;;;;5093690;28;19955;-67
2023/05/07 04:52:23;;;;;;;;;;;20.20;65.90;;;;;;5105715;28;19918;-68
2023/05/07 04:54:49;;;;;;;;;;;19.70;64.70;;;;;;5115038;28;20364;-66
2023/05/07 04:57:17;;;;;;;;;;;19.20;63.40;;;;;;5082701;28;19916;-67
2023/05/07 04:59:44;;;;;;;;;;;18.80;65.80;;;;;;5094374;28;20314;-69
2023/05/07 05:02:11;;;;;;;;;;;18.50;65.20;;;;;;5094466;28;19920;-68
2023/05/07 05:04:37;;;;;;;;;;;18.30;65.10;;;;;;5098452;28;19908;-67
2023/05/07 05:07:04;;;;;;;;;;;18.30;65.50;;;;;;5093405;28;20014;-65
2023/05/07 05:09:31;;;;;;;;;;;18.40;67.20;;;;;;5094146;28;19970;-67
2023/05/07 05:11:57;;;;;;;;;;;18.40;66.60;;;;;;5094678;28;19961;-68
2023/05/07 05:14:24;;;;;;;;;;;18.60;66.30;;;;;;5094416;28;19916;-68
2023/05/07 05:16:51;;;;;;;;;;;19.20;65.50;;;;;;5093857;28;19920;-67
2023/05/07 05:19:17;;;;;;;;;;;19.90;64.70;;;;;;5094365;28;19919;-67
2023/05/07 05:21:44;;;;;;;;;;;19.90;62.70;;;;;;5093330;28;19923;-66
2023/05/07 05:24:11;;;;;;;;;;;19.50;63.70;;;;;;5093439;28;19913;-66
2023/05/07 05:26:37;;;;;;;;;;;19.20;65.10;;;;;;5092345;28;20353;-65
2023/05/07 05:29:04;;;;;;;;;;;18.70;65.70;;;;;;5093701;28;19912;-67
2023/05/07 05:31:31;;;;;;;;;;;18.20;65.60;;;;;;5093767;28;19943;-67
2023/05/07 05:33:57;;;;;;;;;;;17.70;67.80;;;;;;5090249;28;20340;-66
2023/05/07 05:36:24;;;;;;;;;;;17.40;67.60;;;;;;5092633;28;19920;-68
2023/05/07 05:38:51;;;;;;;;;;;17.30;67.90;;;;;;5093001;28;19966;-65
2023/05/07 05:41:17;;;;;;;;;;;17.70;66.90;;;;;;5093153;28;19920;-66
2023/05/07 05:43:44;;;;;;;;;;;17.80;65.80;;;;;;5090696;28;20302;-66
2023/05/07 05:46:11;;;;;;;;;;;17.80;66.60;;;;;;5092484;28;19915;-66
2023/05/07 05:48:38;;;;;;;;;;;17.90;65.50;;;;;;5093843;28;19960;-67
2023/05/07 05:51:04;;;;;;;;;;;18.10;67.10;;;;;;5093795;28;20026;-63
2023/05/07 05:53:31;;;;;;;;;;;18.00;65.30;;;;;;5093674;28;20276;-67
2023/05/07 05:55:58;;;;;;;;;;;17.90;66.90;;;;;;5092769;28;19924;-65
2023/05/07 05:58:24;;;;;;;;;;;17.90;64.70;;;;;;5093394;28;20395;-67
2023/05/07 06:00:52;;;;;;;;;;;17.80;65.30;;;;;;5093588;28;20310;-67
2023/05/07 06:03:18;;;;;;;;;;;17.50;65.70;;;;;;5093929;28;19912;-67
2023/05/07 06:05:45;;;;;;;;;;;17.60;67.00;;;;;;5092741;28;19912;-66
2023/05/07 06:08:12;;;;;;;;;;;17.90;67.20;;;;;;5093551;28;19912;-66
2023/05/07 06:10:38;;;;;;;;;;;18.20;66.40;;;;;;5092432;28;19965;-65
2023/05/07 06:13:05;;;;;;;;;;;19.20;66.50;;;;;;5093249;28;19950;-69
2023/05/07 06:15:31;;;;;;;;;;;20.20;63.70;;;;;;5092745;28;19920;-67
2023/05/07 06:17:58;;;;;;;;;;;20.80;62.50;;;;;;5092824;28;19912;-66
2023/05/07 06:20:25;;;;;;;;;;;21.40;62.00;;;;;;5092834;28;19941;-67
2023/05/07 06:22:51;;;;;;;;;;;21.40;60.60;;;;;;5092982;28;20399;-66
2023/05/07 06:25:18;;;;;;;;;;;20.60;61.20;;;;;;5092609;28;20383;-66
2023/05/07 06:27:45;;;;;;;;;;;19.60;64.00;;;;;;5092511;28;19999;-67
2023/05/07 06:30:11;;;;;;;;;;;18.70;64.50;;;;;;5092516;28;19940;-68
2023/05/07 06:32:38;;;;;;;;;;;17.80;65.10;;;;;;5092652;28;19994;-67
2023/05/07 06:35:05;;;;;;;;;;;17.20;68.00;;;;;;5092501;28;19916;-65
2023/05/07 06:37:31;;;;;;;;;;;16.60;68.40;;;;;;5092404;28;19913;-64
2023/05/07 06:39:58;;;;;;;;;;;16.10;69.30;;;;;;5093632;28;19919;-66
2023/05/07 06:42:25;;;;;;;;;;;15.70;69.60;;;;;;5112203;28;20368;-65
2023/05/07 06:44:51;;;;;;;;;;;15.40;71.40;;;;;;5091144;28;19920;-67
2023/05/07 06:47:18;;;;;;;;;;;15.20;71.90;;;;;;5092652;28;19908;-65
2023/05/07 06:49:45;;;;;;;;;;;15.00;71.50;;;;;;5092603;28;19961;-68
2023/05/07 06:52:11;;;;;;;;;;;14.70;72.20;;;;;;5092472;28;19930;-65
2023/05/07 06:54:38;;;;;;;;;;;14.60;72.00;;;;;;5092358;28;19908;-68
2023/05/07 06:57:04;;;;;;;;;;;14.60;72.30;;;;;;5092257;28;20357;-66
2023/05/07 06:59:31;;;;;;;;;;;14.40;72.60;;;;;;5092616;28;19908;-67
2023/05/07 07:01:58;;;;;;;;;;;14.40;74.10;;;;;;5091731;28;20365;-67
2023/05/07 07:04:25;;;;;;;;;;;14.20;74.20;;;;;;5073958;28;20293;-66
2023/05/07 07:06:56;;;;;;;;;;;14.10;75.40;;;;;;5090737;28;19908;-64
2023/05/07 07:09:23;;;;;;;;;;;14.00;75.40;;;;;;5090237;28;19916;-67
2023/05/07 07:11:49;;;;;;;;;;;13.90;75.10;;;;;;5089188;28;20276;-67
2023/05/07 07:14:16;;;;;;;;;;;13.90;76.40;;;;;;5088215;28;20000;-68
2023/05/07 07:16:42;;;;;;;;;;;13.80;76.30;;;;;;5089501;28;20372;-66
2023/05/07 07:19:09;;;;;;;;;;;13.80;76.70;;;;;;5089866;28;19920;-67
2023/05/07 07:21:36;;;;;;;;;;;13.70;76.80;;;;;;5088546;28;19915;-69
2023/05/07 07:24:02;;;;;;;;;;;13.60;77.20;;;;;;5087712;28;19943;-67
2023/05/07 07:26:29;;;;;;;;;;;13.50;77.30;;;;;;5088920;28;19908;-64
2023/05/07 07:28:56;;;;;;;;;;;13.40;78.60;;;;;;5085808;28;19915;-68
2023/05/07 07:31:22;;;;;;;;;;;13.30;79.50;;;;;;5088437;28;19927;-68
2023/05/07 07:33:50;;;;;;;;;;;13.30;79.40;;;;;;5087761;28;20054;-65
2023/05/07 07:36:16;;;;;;;;;;;13.20;80.50;;;;;;5086563;28;20026;-66
2023/05/07 07:38:43;;;;;;;;;;;13.10;80.40;;;;;;5089613;28;19995;-66
2023/05/07 07:41:09;;;;;;;;;;;13.00;81.50;;;;;;5092193;28;19920;-64
2023/05/07 07:43:36;;;;;;;;;;;12.90;81.30;;;;;;5089320;28;20007;-66
2023/05/07 07:46:03;;;;;;;;;;;12.90;81.70;;;;;;5087911;28;20371;-65
2023/05/07 07:48:30;;;;;;;;;;;12.80;81.70;;;;;;5090092;28;19908;-67
2023/05/07 07:50:57;;;;;;;;;;;12.80;83.00;;;;;;5092805;28;19990;-67
2023/05/07 07:53:24;;;;;;;;;;;12.70;82.40;;;;;;5094265;28;19985;-66
2023/05/07 07:55:50;;;;;;;;;;;12.60;82.70;;;;;;5093678;28;19915;-67
2023/05/07 07:58:17;;;;;;;;;;;12.60;83.00;;;;;;5094604;28;19982;-65
2023/05/07 08:00:44;;;;;;;;;;;12.50;83.20;;;;;;5094622;28;19909;-67
2023/05/07 08:03:11;;;;;;;;;;;12.60;83.20;;;;;;5094403;28;19908;-66
2023/05/07 08:05:38;;;;;;;;;;;12.60;83.60;;;;;;5094722;28;19922;-66
2023/05/07 08:08:05;;;;;;;;;;;12.50;83.70;;;;;;5094127;28;19923;-64
2023/05/07 08:10:34;;;;;;;;;;;12.40;84.30;;;;;;5094332;28;20322;-67
2023/05/07 08:13:01;;;;;;;;;;;12.40;84.60;;;;;;5094279;28;19922;-66
2023/05/07 08:15:28;;;;;;;;;;;12.30;84.80;;;;;;5093779;28;19977;-63
2023/05/07 08:17:57;;;;;;;;;;;12.30;84.70;;;;;;5093824;28;19912;-66
2023/05/07 08:20:24;;;;;;;;;;;12.30;85.10;;;;;;5093740;28;19920;-66
2023/05/07 08:22:51;;;;;;;;;;;12.30;85.30;;;;;;5094056;28;19915;-69
2023/05/07 08:25:18;;;;;;;;;;;12.30;86.10;;;;;;5093115;28;19916;-65
2023/05/07 08:27:44;;;;;;;;;;;12.20;86.40;;;;;;5093567;28;19912;-68
2023/05/07 08:30:11;;;;;;;;;;;12.20;87.00;;;;;;5094070;28;19909;-68
2023/05/07 08:32:38;;;;;;;;;;;12.20;86.90;;;;;;5094077;28;19912;-69
2023/05/07 08:35:05;;;;;;;;;;;12.10;87.50;;;;;;5093474;28;20385;-69
2023/05/07 08:37:31;;;;;;;;;;;12.10;88.00;;;;;;5093824;28;19912;-68
2023/05/07 08:39:58;;;;;;;;;;;12.10;88.60;;;;;;5095518;28;19912;-68
2023/05/07 08:42:25;;;;;;;;;;;12.10;88.60;;;;;;5092386;28;20004;-67
2023/05/07 08:44:55;;;;;;;;;;;12.10;88.40;;;;;;5093656;28;19918;-67
2023/05/07 08:47:23;;;;;;;;;;;12.00;89.80;;;;;;5093179;28;19922;-68
2023/05/07 08:49:50;;;;;;;;;;;12.10;90.50;;;;;;5092958;28;19912;-67
2023/05/07 08:52:17;;;;;;;;;;;12.10;90.80;;;;;;5093182;28;19908;-68
2023/05/07 08:54:43;;;;;;;;;;;12.00;90.50;;;;;;5093209;28;20360;-67
2023/05/07 08:57:10;;;;;;;;;;;12.10;90.50;;;;;;5093353;28;20361;-69
2023/05/07 08:59:37;;;;;;;;;;;12.10;90.50;;;;;;5092694;28;19954;-67
2023/05/07 09:02:03;;;;;;;;;;;12.10;90.90;;;;;;5091649;28;19916;-65
2023/05/07 09:04:31;;;;;;;;;;;12.10;91.20;;;;;;5092999;28;19908;-67
2023/05/07 09:07:03;;;;;;;;;;;12.10;90.30;;;;;;5092397;28;19908;-66
2023/05/07 09:09:30;;;;;;;;;;;12.10;90.30;;;;;;5093078;28;19908;-67
2023/05/07 09:11:59;;;;;;;;;;;12.00;90.20;;;;;;5092885;28;19919;-67
2023/05/07 09:14:26;;;;;;;;;;;12.00;90.30;;;;;;5092455;28;19966;-67
2023/05/07 09:16:53;;;;;;;;;;;11.90;90.40;;;;;;5093001;28;19916;-64
2023/05/07 09:19:26;;;;;;;;;;;12.00;90.70;;;;;;5091841;28;20272;-63
2023/05/07 09:22:03;;;;;;;;;;;11.90;90.80;;;;;;5090959;28;20412;-64
2023/05/07 09:24:33;;;;;;;;;;;12.00;90.70;;;;;;5088943;28;19915;-63
2023/05/07 09:27:01;;;;;;;;;;;12.10;90.70;;;;;;5090370;28;19916;-65
2023/05/07 09:29:35;;;;;;;;;;;12.00;90.50;;;;;;5090655;28;19953;-66
2023/05/07 09:32:02;;;;;;;;;;;12.00;90.50;;;;;;5087940;28;19962;-63
2023/05/07 09:34:30;;;;;;;;;;;12.10;90.90;;;;;;5091041;28;20357;-64
2023/05/07 09:36:59;;;;;;;;;;;12.00;90.60;;;;;;5090292;28;19922;-67
2023/05/07 09:39:25;;;;;;;;;;;12.00;90.70;;;;;;5090689;28;19908;-65
2023/05/07 09:41:54;;;;;;;;;;;12.00;90.90;;;;;;5091885;28;19920;-68
2023/05/07 09:44:21;;;;;;;;;;;11.90;91.10;;;;;;5088548;28;19964;-66
2023/05/07 09:46:53;;;;;;;;;;;11.90;91.20;;;;;;5072036;28;19913;-65
2023/05/07 09:49:23;;;;;;;;;;;11.90;91.40;;;;;;5090584;28;19919;-65
2023/05/07 09:51:51;;;;;;;;;;;11.90;91.50;;;;;;5090585;28;19919;-66
2023/05/07 09:54:18;;;;;;;;;;;11.80;91.70;;;;;;5089955;28;20249;-63
2023/05/07 09:56:49;;;;;;;;;;;11.80;91.70;;;;;;5090342;28;19928;-64
2023/05/07 09:59:16;;;;;;;;;;;11.80;91.80;;;;;;5091726;28;19908;-60
2023/05/07 10:01:44;;;;;;;;;;;11.80;92.00;;;;;;5092090;28;19915;-65
2023/05/07 10:04:11;;;;;;;;;;;11.70;92.40;;;;;;5092783;28;20034;-66
2023/05/07 10:06:38;;;;;;;;;;;11.70;92.40;;;;;;5090758;28;19998;-64
2023/05/07 10:09:05;;;;;;;;;;;11.80;92.40;;;;;;5091740;28;20018;-69
2023/05/07 10:11:35;;;;;;;;;;;11.70;92.50;;;;;;5092454;28;20328;-65
2023/05/07 10:14:02;;;;;;;;;;;11.70;92.80;;;;;;5092464;28;19916;-63
2023/05/07 10:16:36;;;;;;;;;;;11.70;92.80;;;;;;5092049;28;19981;-69
2023/05/07 10:19:06;;;;;;;;;;;11.60;93.00;;;;;;5084546;28;19962;-69
2023/05/07 10:21:36;;;;;;;;;;;11.70;93.20;;;;;;5097485;28;19919;-64
2023/05/07 10:24:13;;;;;;;;;;;11.60;93.50;;;;;;5095965;28;19916;-65
2023/05/07 10:26:43;;;;;;;;;;;11.60;93.60;;;;;;5091755;28;19912;-65
2023/05/07 10:29:16;;;;;;;;;;;11.60;93.60;;;;;;5092236;28;19912;-65
2023/05/07 10:31:53;;;;;;;;;;;11.60;93.70;;;;;;5092466;28;19916;-66
2023/05/07 10:34:26;;;;;;;;;;;11.60;93.60;;;;;;5092791;28;19994;-65
2023/05/07 10:36:54;;;;;;;;;;;11.50;93.80;;;;;;5092068;28;19931;-69
2023/05/07 10:39:21;;;;;;;;;;;11.40;93.80;;;;;;5092007;28;19981;-67
2023/05/07 10:41:49;;;;;;;;;;;11.50;93.90;;;;;;5099371;28;19983;-66
2023/05/07 10:44:28;;;;;;;;;;;11.40;93.20;;;;;;5092050;28;19961;-64
2023/05/07 10:47:09;;;;;;;;;;;11.40;93.00;;;;;;5091617;28;20390;-64
2023/05/07 10:49:55;;;;;;;;;;;11.30;92.80;;;;;;5072432;28;19955;-64
2023/05/07 10:52:26;;;;;;;;;;;11.40;93.00;;;;;;5084490;28;20276;-66
2023/05/07 10:55:29;;;;;;;;;;;11.30;92.80;;;;;;5092359;28;19961;-66
2023/05/07 10:57:56;;;;;;;;;;;11.30;93.00;;;;;;5044687;28;19970;-63
2023/05/07 11:00:26;;;;;;;;;;;11.20;93.10;;;;;;5084359;28;19931;-64
2023/05/07 11:03:11;;;;;;;;;;;11.20;93.30;;;;;;5091739;28;19926;-65
2023/05/07 11:05:38;;;;;;;;;;;11.10;93.30;;;;;;5091570;28;19958;-67
2023/05/07 11:08:05;;;;;;;;;;;11.20;93.30;;;;;;5111043;28;19916;-66
2023/05/07 11:10:51;;;;;;;;;;;11.10;93.30;;;;;;5111540;28;19912;-68
2023/05/07 11:13:19;;;;;;;;;;;11.00;93.40;;;;;;5112129;28;19912;-66
2023/05/07 11:15:47;;;;;;;;;;;11.10;93.70;;;;;;5092268;28;19916;-68
2023/05/07 11:18:17;;;;;;;;;;;11.00;93.90;;;;;;5090356;28;19923;-64
2023/05/07 11:20:47;;;;;;;;;;;11.00;94.30;;;;;;5087570;28;19912;-66
2023/05/07 11:23:32;;;;;;;;;;;11.00;95.40;;;;;;5091187;28;20003;-67
2023/05/07 11:26:03;;;;;;;;;;;10.90;95.90;;;;;;5089781;28;19990;-68
2023/05/07 11:28:47;;;;;;;;;;;10.80;97.30;;;;;;5090966;28;20344;-68
2023/05/07 11:31:16;;;;;;;;;;;10.70;98.20;;;;;;5091579;28;19908;-68
2023/05/07 11:33:44;;;;;;;;;;;10.60;99.30;;;;;;5090912;28;19916;-71
2023/05/07 11:36:11;;;;;;;;;;;10.50;99.90;;;;;;5089945;28;19927;-68
2023/05/07 11:38:38;;;;;;;;;;;10.30;99.90;;;;;;5090677;28;19961;-68
2023/05/07 11:41:05;;;;;;;;;;;10.20;99.90;;;;;;5091382;28;19916;-68
2023/05/07 11:43:32;;;;;;;;;;;10.00;99.90;;;;;;5093619;28;19918;-70
2023/05/07 11:46:09;;;;;;;;;;;9.90;99.90;;;;;;5101883;28;20289;-67
2023/05/07 11:48:36;;;;;;;;;;;9.80;99.90;;;;;;5091997;28;19956;-66
2023/05/07 11:51:04;;;;;;;;;;;9.70;99.90;;;;;;5092164;28;19926;-67
2023/05/07 11:53:37;;;;;;;;;;;9.60;99.90;;;;;;5092466;28;19909;-69
2023/05/07 11:56:11;;;;;;;;;;;9.40;99.90;;;;;;5091967;28;19963;-70
2023/05/07 11:58:41;;;;;;;;;;;9.40;99.90;;;;;;5091632;28;19958;-70
2023/05/07 12:01:09;;;;;;;;;;;9.40;99.90;;;;;;5092155;28;19915;-71
2023/05/07 12:03:37;;;;;;;;;;;9.20;99.90;;;;;;5093344;28;20046;-68
2023/05/07 12:06:06;;;;;;;;;;;8.90;99.90;;;;;;5101719;28;19908;-68
2023/05/07 12:08:33;;;;;;;;;;;8.80;99.90;;;;;;5091881;28;19955;-67
2023/05/07 12:10:59;;;;;;;;;;;8.80;99.90;;;;;;5092195;28;19915;-70
2023/05/07 12:13:26;;;;;;;;;;;8.60;99.90;;;;;;5072308;28;19916;-68
2023/05/07 12:15:53;;;;;;;;;;;8.50;99.90;;;;;;5100989;28;19920;-70
2023/05/07 12:18:21;;;;;;;;;;;8.40;99.90;;;;;;5092004;28;19969;-70
2023/05/07 12:20:47;;;;;;;;;;;8.40;99.90;;;;;;5092513;28;19953;-68
2023/05/07 12:23:14;;;;;;;;;;;8.30;99.90;;;;;;5092543;28;19908;-68
2023/05/07 12:25:46;;;;;;;;;;;8.40;99.90;;;;;;5073646;28;20331;-67
2023/05/07 12:28:15;;;;;;;;;;;8.30;99.90;;;;;;5092201;28;20289;-69
2023/05/07 12:30:42;;;;;;;;;;;8.40;99.90;;;;;;5092108;28;19912;-68
2023/05/07 12:33:09;;;;;;;;;;;8.40;99.90;;;;;;5092406;28;19953;-67
2023/05/07 12:35:43;;;;;;;;;;;8.40;99.90;;;;;;5091686;28;19916;-69
2023/05/07 12:38:10;;;;;;;;;;;8.40;99.90;;;;;;5107760;28;19912;-68
2023/05/07 12:40:38;;;;;;;;;;;8.40;99.90;;;;;;5099249;28;19963;-70
2023/05/07 12:43:04;;;;;;;;;;;8.30;99.90;;;;;;5095983;28;19915;-68
2023/05/07 12:45:31;;;;;;;;;;;8.30;99.90;;;;;;5095740;28;20474;-68
2023/05/07 12:48:02;;;;;;;;;;;8.30;99.90;;;;;;5096008;28;19948;-68
2023/05/07 12:50:33;;;;;;;;;;;8.10;99.90;;;;;;5094133;28;19912;-69
2023/05/07 12:52:59;;;;;;;;;;;8.10;99.90;;;;;;5095740;28;19915;-68
2023/05/07 12:55:26;;;;;;;;;;;8.10;99.90;;;;;;5095020;28;20357;-70
2023/05/07 12:57:53;;;;;;;;;;;8.10;99.90;;;;;;5095348;28;19995;-69
2023/05/07 13:00:36;;;;;;;;;;;8.10;99.90;;;;;;5095824;28;19916;-68
2023/05/07 13:03:03;;;;;;;;;;;8.00;99.90;;;;;;5095319;28;19916;-69
2023/05/07 13:05:30;;;;;;;;;;;8.10;99.90;;;;;;5095193;28;19913;-70
2023/05/07 13:07:56;;;;;;;;;;;8.00;99.90;;;;;;5095077;28;19974;-69
2023/05/07 13:10:23;;;;;;;;;;;8.10;99.90;;;;;;5095543;28;19912;-69
2023/05/07 13:12:50;;;;;;;;;;;8.10;99.90;;;;;;5095345;28;20365;-69
2023/05/07 13:15:17;;;;;;;;;;;8.10;99.90;;;;;;5095103;28;19916;-68
2023/05/07 13:17:44;;;;;;;;;;;8.00;99.90;;;;;;5095622;28;19914;-68
2023/05/07 13:20:12;;;;;;;;;;;8.10;99.90;;;;;;5095212;28;19919;-68
2023/05/07 13:22:40;;;;;;;;;;;8.20;99.90;;;;;;5095310;28;19908;-71
2023/05/07 13:25:06;;;;;;;;;;;8.20;99.90;;;;;;5094827;28;19934;-68
2023/05/07 13:27:36;;;;;;;;;;;8.20;99.90;;;;;;5094365;28;19973;-68
2023/05/07 13:30:04;;;;;;;;;;;8.20;99.90;;;;;;5094820;28;19923;-68
2023/05/07 13:32:31;;;;;;;;;;;8.20;99.90;;;;;;5095018;28;20265;-69
2023/05/07 13:34:58;;;;;;;;;;;8.30;99.90;;;;;;5094512;28;19943;-68
2023/05/07 13:37:24;;;;;;;;;;;8.20;99.90;;;;;;5094851;28;19955;-69
2023/05/07 13:39:51;;;;;;;;;;;8.20;99.90;;;;;;5095043;28;19912;-67
2023/05/07 13:42:17;;;;;;;;;;;8.30;99.90;;;;;;5094763;28;19927;-68
2023/05/07 13:44:45;;;;;;;;;;;8.30;99.90;;;;;;5094578;28;19916;-69
2023/05/07 13:47:11;;;;;;;;;;;8.30;99.90;;;;;;5094168;28;19908;-70
2023/05/07 13:49:38;;;;;;;;;;;8.30;99.90;;;;;;5094319;28;19968;-67
2023/05/07 13:52:05;;;;;;;;;;;8.40;99.90;;;;;;5094641;28;20207;-67
2023/05/07 13:54:31;;;;;;;;;;;8.50;99.90;;;;;;5094357;28;19919;-67
2023/05/07 13:56:58;;;;;;;;;;;8.50;99.90;;;;;;5094360;28;19916;-69
2023/05/07 13:59:24;;;;;;;;;;;8.50;99.90;;;;;;5094426;28;19949;-67
2023/05/07 14:01:51;;;;;;;;;;;8.60;99.90;;;;;;5093205;28;19959;-68
2023/05/07 14:04:18;;;;;;;;;;;8.60;99.90;;;;;;5094381;28;19911;-68
2023/05/07 14:06:44;;;;;;;;;;;8.60;99.90;;;;;;5094590;28;20347;-68
2023/05/07 14:09:13;;;;;;;;;;;8.70;99.90;;;;;;5094636;28;19962;-66
2023/05/07 14:11:39;;;;;;;;;;;8.70;99.90;;;;;;5094167;28;20034;-67
2023/05/07 14:14:06;;;;;;;;;;;8.70;99.90;;;;;;5093784;28;20002;-67
2023/05/07 14:16:33;;;;;;;;;;;8.70;99.90;;;;;;5093907;28;19924;-68
2023/05/07 14:18:59;;;;;;;;;;;8.80;99.90;;;;;;5093792;28;19912;-68
2023/05/07 14:21:26;;;;;;;;;;;8.80;99.90;;;;;;5093919;28;19911;-69